Time;durP1;ratioP1;P1;durP2;ratioP2;P2;SDS_P1;SDS_P2;PMS_P1;PMS_P2;Temp;Humidity;BMP_temperature;BMP_pressure;BME280_temperature;BME280_humidity;BME280_pressure;Samples;Min_cycle;Max_cycle;Signal;HPM_P1;HPM_P2
2023/08/08 00:01:16;;;;;;;1.52;0.43;;;;;;;21.19;36.71;100730.69;6256641;23;20355;-80
2023/08/08 00:04:11;;;;;;;0.95;0.55;;;;;;;20.94;37.88;100743.53;6234487;23;20049;-80
2023/08/08 00:07:03;;;;;;;1.02;0.38;;;;;;;21.04;38.50;100740.03;6256839;23;20020;-79
2023/08/08 00:09:58;;;;;;;0.43;0.30;;;;;;;20.99;38.25;100745.94;6234077;23;20023;-79
2023/08/08 00:12:50;;;;;;;3.67;0.50;;;;;;;20.75;39.21;100741.03;6256913;23;20023;-79
2023/08/08 00:15:44;;;;;;;2.97;0.43;;;;;;;20.88;39.76;100745.84;6234297;23;20039;-79
2023/08/08 00:18:39;;;;;;;2.05;0.50;;;;;;;21.03;38.83;100746.75;6233695;23;20027;-79
2023/08/08 00:21:33;;;;;;;8.25;0.73;;;;;;;21.08;39.45;100754.69;6256396;23;20023;-79
2023/08/08 00:24:25;;;;;;;1.23;0.50;;;;;;;21.18;39.73;100759.50;6234375;23;20023;-79
2023/08/08 00:27:15;;;;;;;1.20;0.57;;;;;;;21.14;40.11;100755.94;6256506;23;20023;-79
2023/08/08 00:30:07;;;;;;;2.72;0.47;;;;;;;21.13;40.72;100753.56;6233301;23;20477;-79
2023/08/08 00:33:02;;;;;;;0.82;0.52;;;;;;;20.83;41.43;100745.41;6254815;23;20071;-79
2023/08/08 00:35:54;;;;;;;;;;;;;;;20.67;41.71;100747.69;6234134;23;20023;-79
2023/08/08 00:38:49;;;;;;;0.77;0.35;;;;;;;20.47;42.34;100761.72;6233892;23;19907;-80
2023/08/08 00:41:43;;;;;;;2.35;0.35;;;;;;;20.34;41.56;100754.88;6233969;23;20019;-79
2023/08/08 00:44:38;;;;;;;3.25;0.50;;;;;;;20.26;42.72;100760.69;6234001;23;20039;-79
2023/08/08 00:47:32;;;;;;;7.47;0.40;;;;;;;20.03;42.79;100747.84;6255847;23;20023;-78
2023/08/08 00:50:27;;;;;;;2.25;0.93;;;;;;;20.27;42.24;100746.50;6233491;23;20023;-79
2023/08/08 00:53:22;;;;;;;2.17;0.50;;;;;;;20.24;42.16;100752.78;6234004;23;20494;-79
2023/08/08 00:56:16;;;;;;;1.05;0.70;;;;;;;20.22;42.20;100757.09;6233855;23;20023;-78
2023/08/08 00:59:14;;;;;;;0.90;0.50;;;;;;;20.09;41.34;100756.56;6233578;23;20023;-79
2023/08/08 01:02:09;;;;;;;1.30;0.45;;;;;;;20.06;42.36;100754.59;6233153;23;20015;-81
2023/08/08 01:05:04;;;;;;;2.03;0.68;;;;;;;20.05;42.21;100766.78;6255828;23;20023;-81
2023/08/08 01:08:02;;;;;;;;;;;;;;;20.02;41.00;100762.81;6213144;23;20355;-80
2023/08/08 01:10:52;;;;;;;1.58;0.40;;;;;;;20.14;40.79;100756.22;6256201;23;19907;-80
2023/08/08 01:13:46;;;;;;;3.20;0.60;;;;;;;20.16;41.16;100747.59;6233411;23;20023;-79
2023/08/08 01:16:38;;;;;;;0.57;0.30;;;;;;;20.13;41.81;100749.13;6212601;23;20038;-79
2023/08/08 01:19:34;;;;;;;1.58;0.80;;;;;;;20.13;42.40;100753.84;6253634;23;20023;-79
2023/08/08 01:22:53;;;;;;;3.33;0.30;;;;;;;19.97;43.56;100760.38;6255812;23;20035;-79
2023/08/08 01:25:48;;;;;;;1.17;0.32;;;;;;;19.80;43.80;100754.69;6212511;23;20019;-79
2023/08/08 01:28:40;;;;;;;;;;;;;;;19.76;45.60;100754.63;6233324;23;20470;-80
2023/08/08 01:31:34;;;;;;;5.28;0.47;;;;;;;20.07;42.75;100756.94;6232958;23;19911;-80
2023/08/08 01:34:30;;;;;;;5.05;0.43;;;;;;;20.10;44.16;100758.19;6255793;23;20019;-79
2023/08/08 01:37:29;;;;;;;15.88;1.67;;;;;;;20.05;43.53;100753.78;6233922;23;20024;-79
2023/08/08 01:40:22;;;;;;;6.45;0.77;;;;;;;19.91;44.44;100744.56;6233109;23;20012;-82
2023/08/08 01:43:19;;;;;;;2.85;0.70;;;;;;;19.87;44.27;100751.97;6233880;23;20035;-79
2023/08/08 01:46:14;;;;;;;4.03;0.60;;;;;;;19.89;45.09;100753.22;6232826;23;20023;-79
2023/08/08 01:49:09;;;;;;;5.65;0.93;;;;;;;19.90;44.66;100745.72;6211749;23;20023;-80
2023/08/08 01:52:01;;;;;;;4.13;0.60;;;;;;;19.99;43.10;100751.75;6233257;23;20019;-80
2023/08/08 01:54:56;;;;;;;7.00;0.68;;;;;;;19.95;44.26;100751.72;6211514;23;20023;-79
2023/08/08 01:57:50;;;;;;;3.15;0.38;;;;;;;19.93;44.05;100744.97;6232623;23;20023;-80
2023/08/08 02:00:45;;;;;;;2.97;0.80;;;;;;;19.90;43.76;100745.72;6232507;23;20366;-78
2023/08/08 02:03:39;;;;;;;1.60;0.70;;;;;;;19.73;44.37;100749.88;6255381;23;20019;-79
2023/08/08 02:06:34;;;;;;;3.45;0.90;;;;;;;19.71;44.58;100738.38;6212057;23;20019;-79
2023/08/08 02:09:30;;;;;;;3.45;0.88;;;;;;;19.74;44.00;100743.19;6211853;23;20020;-79
2023/08/08 02:12:24;;;;;;;2.72;0.47;;;;;;;19.63;44.50;100748.56;6232205;23;20019;-79
2023/08/08 02:15:19;;;;;;;1.60;0.65;;;;;;;19.63;44.32;100750.53;6254122;23;20351;-79
2023/08/08 02:18:13;;;;;;;1.67;0.73;;;;;;;19.52;47.15;100761.44;6232255;23;20355;-79
2023/08/08 02:21:08;;;;;;;4.95;0.63;;;;;;;19.39;45.98;100757.28;6233361;23;20079;-81
2023/08/08 02:24:02;;;;;;;2.35;0.63;;;;;;;19.56;46.41;100758.69;6232752;23;20015;-80
2023/08/08 02:26:57;;;;;;;9.02;0.70;;;;;;;19.45;44.99;100758.59;6232627;23;20343;-80
2023/08/08 02:29:51;;;;;;;2.13;0.57;;;;;;;19.44;44.34;100762.50;6232042;23;20027;-80
2023/08/08 02:32:51;;;;;;;1.08;0.70;;;;;;;19.41;45.28;100774.25;6234314;23;20565;-79
2023/08/08 02:35:46;;;;;;;0.70;0.60;;;;;;;19.37;45.64;100770.66;6233048;23;20653;-80
2023/08/08 02:38:40;;;;;;;1.52;0.50;;;;;;;19.42;45.79;100778.59;6211463;23;20023;-79
2023/08/08 02:41:35;;;;;;;0.98;0.60;;;;;;;19.33;44.96;100782.81;6211875;23;20023;-79
2023/08/08 02:44:30;;;;;;;0.93;0.40;;;;;;;19.39;46.08;100779.34;6232237;23;20015;-79
2023/08/08 02:47:24;;;;;;;1.77;0.40;;;;;;;19.40;46.09;100780.91;6255000;23;20023;-79
2023/08/08 02:50:19;;;;;;;1.00;0.40;;;;;;;19.43;45.66;100776.63;6223135;23;20042;-79
2023/08/08 02:53:11;;;;;;;3.88;0.50;;;;;;;19.54;44.61;100777.59;6233098;23;20019;-79
2023/08/08 02:56:06;;;;;;;;;;;;;;;19.50;45.12;100774.81;6233985;23;20019;-79
2023/08/08 02:59:01;;;;;;;0.85;0.73;;;;;;;19.57;44.23;100777.66;6231877;23;19912;-79
2023/08/08 03:01:56;;;;;;;2.45;0.65;;;;;;;19.50;45.30;100774.81;6253804;23;20019;-79
2023/08/08 03:04:51;;;;;;;4.05;0.30;;;;;;;19.38;45.73;100766.72;6232756;23;20051;-79
2023/08/08 03:07:47;;;;;;;0.77;0.50;;;;;;;19.25;46.04;100765.34;6232197;23;20031;-79
2023/08/08 03:10:40;;;;;;;1.63;0.75;;;;;;;19.27;45.88;100762.22;6254719;23;20019;-79
2023/08/08 03:13:33;;;;;;;2.75;0.43;;;;;;;19.23;45.93;100764.94;6231974;23;20019;-79
2023/08/08 03:16:28;;;;;;;1.10;0.40;;;;;;;19.28;45.55;100770.13;6254008;23;20039;-80
2023/08/08 03:19:20;;;;;;;1.05;0.40;;;;;;;19.30;44.86;100772.53;6231743;23;20019;-79
2023/08/08 03:22:15;;;;;;;0.90;0.38;;;;;;;19.25;44.96;100770.09;6232161;23;20023;-79
2023/08/08 03:25:09;;;;;;;4.05;0.60;;;;;;;19.24;45.13;100774.81;6232590;23;20023;-79
2023/08/08 03:28:01;;;;;;;9.63;1.15;;;;;;;19.25;45.27;100767.34;6231700;23;20027;-79
2023/08/08 03:30:51;;;;;;;6.63;1.40;;;;;;;19.16;44.93;100762.06;6232691;23;20023;-79
2023/08/08 03:33:47;;;;;;;1.95;0.50;;;;;;;19.08;45.18;100761.19;6232967;23;20347;-79
2023/08/08 03:36:42;;;;;;;0.68;0.32;;;;;;;19.07;44.86;100778.09;6255072;23;20023;-79
2023/08/08 03:39:36;;;;;;;0.70;0.40;;;;;;;19.08;45.41;100772.22;6253121;23;20019;-78
2023/08/08 03:42:31;;;;;;;1.60;0.88;;;;;;;19.02;46.41;100772.88;6231940;23;20422;-79
2023/08/08 03:45:25;;;;;;;0.73;0.50;;;;;;;18.95;45.83;100773.56;6211148;23;20024;-79
2023/08/08 03:48:19;;;;;;;1.98;1.00;;;;;;;18.92;46.19;100770.75;6232345;23;20023;-79
2023/08/08 03:51:14;;;;;;;6.72;0.70;;;;;;;18.85;46.05;100770.63;6232273;23;20580;-79
2023/08/08 03:54:09;;;;;;;2.83;0.40;;;;;;;18.77;46.55;100780.78;6232224;23;20072;-80
2023/08/08 03:57:01;;;;;;;1.45;0.65;;;;;;;18.76;46.49;100771.69;6232099;23;20481;-80
2023/08/08 03:59:55;;;;;;;1.05;0.40;;;;;;;18.91;46.92;100786.50;6231897;23;20019;-80
2023/08/08 04:02:50;;;;;;;3.03;0.75;;;;;;;19.01;46.91;100785.88;6252863;23;20020;-80
2023/08/08 04:05:45;;;;;;;4.45;0.70;;;;;;;19.06;49.01;100774.53;6254391;23;20023;-81
2023/08/08 04:08:40;;;;;;;1.55;0.60;;;;;;;18.97;47.97;100773.19;6231394;23;20023;-80
2023/08/08 04:11:35;;;;;;;3.08;0.43;;;;;;;19.02;47.17;100775.66;6211227;23;20039;-79
2023/08/08 04:14:29;;;;;;;1.35;0.60;;;;;;;19.06;46.16;100779.25;6232575;23;20043;-79
2023/08/08 04:17:19;;;;;;;;;;;;;;;19.12;47.03;100777.78;6232098;23;20023;-79
2023/08/08 04:20:15;;;;;;;3.30;0.50;;;;;;;19.07;46.21;100767.06;6252816;23;19907;-80
2023/08/08 04:23:09;;;;;;;2.17;0.38;;;;;;;19.42;46.63;100767.56;6253203;23;20020;-79
2023/08/08 04:26:04;;;;;;;2.80;0.47;;;;;;;19.64;43.54;100755.69;6254501;23;20497;-79
2023/08/08 04:28:58;;;;;;;1.10;0.63;;;;;;;19.55;43.46;100757.94;6253017;23;20039;-80
2023/08/08 04:31:53;;;;;;;1.95;0.57;;;;;;;19.69;44.57;100764.78;6254689;23;20023;-79
2023/08/08 04:34:45;;;;;;;0.50;0.30;;;;;;;19.60;42.22;100763.13;6251905;23;20351;-79
2023/08/08 04:37:40;;;;;;;2.00;0.88;;;;;;;19.53;42.42;100759.47;6234330;23;20027;-79
2023/08/08 04:40:34;;;;;;;2.35;0.40;;;;;;;19.37;42.95;100770.66;6255819;23;20030;-81
2023/08/08 04:43:30;;;;;;;0.60;0.40;;;;;;;19.41;42.79;100768.72;6234620;23;20019;-79
2023/08/08 04:46:24;;;;;;;2.65;0.57;;;;;;;19.38;42.83;100777.75;6235484;23;20023;-83
2023/08/08 04:49:19;;;;;;;4.05;0.30;;;;;;;19.33;43.21;100780.84;6233535;23;20022;-81
2023/08/08 04:52:14;;;;;;;4.20;0.40;;;;;;;19.36;43.62;100790.31;6256234;23;20020;-81
2023/08/08 04:55:08;;;;;;;1.58;0.60;;;;;;;19.44;43.08;100790.09;6255826;23;20031;-80
2023/08/08 04:58:02;;;;;;;1.90;0.40;;;;;;;19.45;43.59;100799.97;6255618;23;20027;-81
2023/08/08 05:00:57;;;;;;;6.40;0.75;;;;;;;19.53;44.95;100807.16;6234210;23;20031;-79
2023/08/08 05:03:52;;;;;;;3.03;0.40;;;;;;;19.49;44.49;100811.03;6255247;23;20038;-77
2023/08/08 05:06:46;;;;;;;3.60;0.40;;;;;;;19.66;43.68;100815.97;6256080;23;20086;-78
2023/08/08 05:09:41;;;;;;;26.60;2.63;;;;;;;19.75;43.49;100819.28;6256218;23;20023;-79
2023/08/08 05:12:35;;;;;;;17.20;1.50;;;;;;;19.86;42.25;100824.94;6233654;23;20035;-80
2023/08/08 05:15:27;;;;;;;5.40;0.50;;;;;;;20.54;44.91;100829.25;6255927;23;20477;-80
2023/08/08 05:18:22;;;;;;;12.90;1.48;;;;;;;20.75;44.62;100833.03;6232966;23;20023;-78
2023/08/08 05:21:16;;;;;;;13.68;1.05;;;;;;;21.02;44.09;100828.13;6234091;23;20012;-79
2023/08/08 05:24:11;;;;;;;19.63;1.60;;;;;;;21.40;42.93;100821.31;6233904;23;20015;-79
2023/08/08 05:27:03;;;;;;;2.72;0.85;;;;;;;21.65;42.03;100818.69;6254657;23;20023;-80
2023/08/08 05:29:57;;;;;;;6.88;1.75;;;;;;;21.87;41.47;100825.91;6233557;23;20490;-79
2023/08/08 05:32:52;;;;;;;3.47;0.40;;;;;;;21.70;40.02;100818.31;6233578;23;20027;-80
2023/08/08 05:35:46;;;;;;;2.85;0.57;;;;;;;21.90;40.61;100830.66;6233806;23;20363;-80
2023/08/08 05:38:41;;;;;;;6.63;0.85;;;;;;;21.45;40.66;100823.72;6233413;23;20030;-84
2023/08/08 05:41:35;;;;;;;4.63;0.68;;;;;;;21.68;40.39;100829.00;6256288;23;20470;-84
2023/08/08 05:44:30;;;;;;;32.00;2.45;;;;;;;21.98;40.08;100837.06;6255614;23;20015;-80
2023/08/08 05:47:25;;;;;;;82.05;6.93;;;;;;;22.10;39.51;100845.00;6255477;23;20039;-81
2023/08/08 05:50:19;;;;;;;36.30;2.92;;;;;;;21.64;41.08;100837.25;6255533;23;20351;-82
2023/08/08 05:53:14;;;;;;;23.30;1.90;;;;;;;21.99;40.54;100831.13;6233661;23;20351;-81
2023/08/08 05:56:08;;;;;;;15.90;1.30;;;;;;;22.18;40.65;100838.31;6233653;23;20015;-81
2023/08/08 05:59:03;;;;;;;10.95;1.25;;;;;;;22.10;41.68;100840.28;6255481;23;20047;-83
2023/08/08 06:01:55;;;;;;;2.90;0.40;;;;;;;21.91;43.48;100842.53;6233475;23;20019;-78
2023/08/08 06:04:45;;;;;;;4.63;0.50;;;;;;;21.41;43.92;100841.47;6233720;23;20015;-78
2023/08/08 06:07:39;;;;;;;2.30;0.35;;;;;;;21.04;45.68;100839.59;6254416;23;20027;-78
2023/08/08 06:10:34;;;;;;;3.17;0.47;;;;;;;20.62;46.67;100856.59;6233045;23;20027;-78
2023/08/08 06:13:29;;;;;;;1.42;0.50;;;;;;;19.57;50.19;100840.31;6255627;23;20019;-77
2023/08/08 06:16:23;;;;;;;1.25;0.40;;;;;;;19.89;50.01;100852.56;6233303;23;20027;-79
2023/08/08 06:19:18;;;;;;;2.50;0.68;;;;;;;20.66;46.14;100854.66;6247927;23;20039;-82
2023/08/08 06:22:12;;;;;;;8.60;2.25;;;;;;;21.31;42.40;100852.09;6255272;23;20023;-79
2023/08/08 06:25:04;;;;;;;2.28;0.50;;;;;;;22.21;40.36;100848.63;6253836;23;20015;-79
2023/08/08 06:27:56;;;;;;;1.63;0.55;;;;;;;22.56;36.75;100853.47;6232662;23;20351;-79
2023/08/08 06:30:51;;;;;;;2.42;0.60;;;;;;;23.19;36.75;100860.28;6255714;23;20035;-80
2023/08/08 06:33:46;;;;;;;1.70;0.47;;;;;;;22.51;37.48;100876.00;6232969;23;20023;-80
2023/08/08 06:36:41;;;;;;;2.92;0.88;;;;;;;22.40;38.75;100872.44;6255396;23;20019;-80
2023/08/08 06:39:35;;;;;;;8.65;1.23;;;;;;;22.01;39.62;100869.50;6232612;23;20023;-80
2023/08/08 06:42:30;;;;;;;13.85;1.35;;;;;;;21.99;39.89;100861.59;6255394;23;20020;-79
2023/08/08 06:45:26;;;;;;;7.57;1.73;;;;;;;21.73;41.83;100875.69;6232273;23;20024;-79
2023/08/08 06:48:18;;;;;;;11.20;2.10;;;;;;;22.58;40.88;100882.38;6254834;23;20023;-79
2023/08/08 06:51:10;;;;;;;9.57;2.85;;;;;;;23.43;39.02;100898.31;6255102;23;20023;-80
2023/08/08 06:54:03;;;;;;;10.68;3.50;;;;;;;23.14;39.59;100905.06;6254248;23;20023;-79
2023/08/08 06:57:01;;;;;;;7.85;1.40;;;;;;;22.97;40.20;100910.19;6255100;23;20019;-79
2023/08/08 06:59:53;;;;;;;6.15;1.13;;;;;;;23.27;39.28;100900.69;6224297;23;20023;-80
2023/08/08 07:02:45;;;;;;;10.77;2.55;;;;;;;23.55;38.51;100906.28;6254897;23;20019;-80
2023/08/08 07:05:39;;;;;;;8.05;2.92;;;;;;;23.88;38.65;100903.03;6232810;23;20019;-81
2023/08/08 07:08:32;;;;;;;7.88;2.05;;;;;;;25.96;35.00;100910.38;6254427;23;20023;-80
2023/08/08 07:11:26;;;;;;;3.80;1.38;;;;;;;30.75;27.59;100918.00;6253289;23;20019;-80
2023/08/08 07:14:19;;;;;;;8.80;1.58;;;;;;;32.33;25.23;100924.25;6232906;23;20023;-81
2023/08/08 07:17:11;;;;;;;8.23;1.17;;;;;;;32.00;25.81;100916.19;6232630;23;20027;-81
2023/08/08 07:20:06;;;;;;;7.05;1.58;;;;;;;31.85;26.38;100909.50;6254315;23;20022;-81
2023/08/08 07:23:00;;;;;;;6.68;0.70;;;;;;;29.60;28.55;100908.47;6254308;23;20019;-82
2023/08/08 07:25:52;;;;;;;5.75;0.65;;;;;;;30.89;27.10;100914.75;6254849;23;20031;-82
2023/08/08 07:28:47;;;;;;;2.67;0.73;;;;;;;31.72;26.12;100914.41;6232850;23;20070;-81
2023/08/08 07:31:41;;;;;;;2.25;0.77;;;;;;;33.32;23.77;100914.72;6233064;23;20038;-81
2023/08/08 07:34:36;;;;;;;5.22;0.88;;;;;;;33.69;23.69;100913.50;6255657;23;20342;-82
2023/08/08 07:37:31;;;;;;;5.47;0.82;;;;;;;35.31;21.27;100909.13;6232858;23;20027;-82
2023/08/08 07:40:25;;;;;;;2.97;0.88;;;;;;;33.34;23.42;100906.53;6234459;23;20023;-83
2023/08/08 07:43:20;;;;;;;2.25;0.68;;;;;;;34.88;22.46;100910.47;6233736;23;20019;-82
2023/08/08 07:46:15;;;;;;;3.38;0.50;;;;;;;31.98;23.80;100896.19;6257842;23;20027;-82
2023/08/08 07:49:04;;;;;;;;;;;;;;;32.90;22.13;100898.28;6234484;23;20023;-84
2023/08/08 07:51:56;;;;;;;;;;;;;;;27.93;30.30;100893.88;6255557;23;19907;-84
2023/08/08 07:54:46;;;;;;;;;;;;;;;26.52;31.30;100892.19;6255115;23;19915;-83
2023/08/08 07:57:35;;;;;;;;;;;;;;;25.79;33.51;100900.25;6255616;23;19908;-85
2023/08/08 08:00:27;;;;;;;;;;;;;;;25.68;33.60;100891.22;6256548;23;20254;-85
2023/08/08 08:03:16;;;;;;;;;;;;;;;25.38;34.76;100889.88;6257033;23;19908;-83
2023/08/08 08:06:06;;;;;;;;;;;;;;;25.43;34.04;100883.88;6255838;23;19911;-84
2023/08/08 08:08:55;;;;;;;;;;;;;;;25.40;35.21;100881.88;6256573;23;19908;-85
2023/08/08 08:11:45;;;;;;;;;;;;;;;25.19;34.76;100887.66;6257609;23;20246;-86
2023/08/08 08:14:37;;;;;;;;;;;;;;;24.97;34.95;100897.38;6258684;23;19912;-86
2023/08/08 08:17:29;;;;;;;;;;;;;;;24.93;36.18;100891.06;6260080;23;20246;-86
2023/08/08 08:20:21;;;;;;;;;;;;;;;25.00;35.87;100891.78;6258262;23;19911;-86
2023/08/08 08:23:12;;;;;;;;;;;;;;;24.99;36.06;100892.97;6237512;23;19907;-84
2023/08/08 08:26:04;;;;;;;;;;;;;;;24.81;37.07;100902.63;6236125;23;19907;-83
2023/08/08 08:28:56;;;;;;;;;;;;;;;24.75;36.69;100901.47;6233949;23;20311;-84
2023/08/08 08:31:48;;;;;;;;;;;;;;;25.08;36.08;100898.09;6257304;23;19911;-84
2023/08/08 08:34:37;;;;;;;;;;;;;;;25.28;35.67;100893.56;6236739;23;19911;-85
2023/08/08 08:37:29;;;;;;;;;;;;;;;25.73;34.53;100890.75;6236434;23;20319;-85
2023/08/08 08:40:21;;;;;;;;;;;;;;;25.62;35.20;100898.44;6258413;23;19911;-86
2023/08/08 08:43:13;;;;;;;;;;;;;;;25.44;36.23;100893.81;6235926;23;19907;-87
2023/08/08 08:46:06;;;;;;;;;;;;;;;25.67;36.29;100897.97;6257128;23;20327;-86
2023/08/08 08:49:00;;;;;;;;;;;;;;;25.73;36.53;100896.31;6236008;23;19907;-88
2023/08/08 08:51:51;;;;;;;;;;;;;;;25.27;37.52;100889.19;6258235;23;19908;-84
2023/08/08 08:54:43;;;;;;;;;;;;;;;25.21;38.52;100895.59;6257817;23;19911;-82
2023/08/08 08:57:35;;;;;;;;;;;;;;;25.20;38.49;100886.44;6255399;23;19912;-79
2023/08/08 09:00:27;;;;;;;;;;;;;;;25.45;38.59;100892.59;6256154;23;19908;-82
2023/08/08 09:03:19;;;;;;;;;;;;;;;25.47;38.54;100892.97;6256160;23;19908;-83
2023/08/08 09:06:11;;;;;;;;;;;;;;;25.26;39.47;100879.25;6256288;23;19912;-85
2023/08/08 09:09:02;;;;;;;;;;;;;;;25.27;39.71;100889.19;6255877;23;20326;-83
2023/08/08 09:11:54;;;;;;;;;;;;;;;25.48;39.36;100886.19;6256902;23;19908;-82
2023/08/08 09:14:41;;;;;;;;;;;;;;;25.42;40.07;100887.84;6255607;23;19911;-81
2023/08/08 09:17:34;;;;;;;;;;;;;;;25.02;41.40;100881.03;6257071;23;19907;-84
2023/08/08 09:20:27;;;;;;;;;;;;;;;25.49;40.18;100893.34;6235146;23;19907;-84
2023/08/08 09:23:19;;;;;;;;;;;;;;;31.64;29.80;100899.03;6257151;23;19908;-84
2023/08/08 09:26:08;;;;;;;;;;;;;;;31.37;29.32;100891.09;6257538;23;20044;-81
2023/08/08 09:28:58;;;;;;;;;;;;;;;28.36;34.18;100888.19;6255347;23;20250;-80
2023/08/08 09:31:50;;;;;;;;;;;;;;;27.47;36.09;100883.53;6257232;23;20262;-78
2023/08/08 09:34:43;;;;;;;;;;;;;;;27.04;36.97;100892.63;6255505;23;19911;-80
2023/08/08 09:37:35;;;;;;;;;;;;;;;27.14;36.79;100891.66;6256490;23;20246;-80
2023/08/08 09:40:24;;;;;;;;;;;;;;;27.66;34.64;100885.59;6255126;23;20246;-80
2023/08/08 09:43:19;;;;;;;0.88;0.30;;;;;;;28.29;34.08;100891.16;6255776;23;20856;-79
2023/08/08 09:46:13;;;;;;;0.85;0.30;;;;;;;27.49;35.23;100890.28;6233738;23;20023;-80
2023/08/08 09:49:08;;;;;;;1.35;0.32;;;;;;;26.85;37.45;100893.31;6234012;23;20031;-83
2023/08/08 09:52:03;;;;;;;6.47;0.30;;;;;;;26.84;36.67;100894.50;6258189;23;20066;-81
2023/08/08 09:54:54;;;;;;;1.95;0.57;;;;;;;26.79;36.55;100890.19;6256916;23;20023;-81
2023/08/08 09:57:46;;;;;;;;;;;;;;;26.95;36.19;100886.81;6256519;23;20019;-79
2023/08/08 10:00:42;;;;;;;6.00;0.50;;;;;;;26.76;35.43;100887.47;6251821;23;20345;-79
2023/08/08 10:03:37;;;;;;;0.98;0.22;;;;;;;26.82;36.51;100891.34;6254066;23;20023;-80
2023/08/08 10:06:31;;;;;;;0.95;0.30;;;;;;;26.77;36.07;100891.81;6253029;23;20351;-80
2023/08/08 10:09:27;;;;;;;4.15;0.43;;;;;;;26.89;36.14;100888.50;6231439;23;20031;-80
2023/08/08 10:12:22;;;;;;;8.35;1.08;;;;;;;27.09;35.71;100886.56;6255242;23;20031;-80
2023/08/08 10:15:14;;;;;;;2.72;0.50;;;;;;;28.08;33.27;100890.38;6256156;23;20390;-81
2023/08/08 10:18:08;;;;;;;6.63;0.40;;;;;;;27.45;35.32;100877.56;6233170;23;20075;-79
2023/08/08 10:21:08;;;;;;;2.22;0.90;;;;;;;27.36;34.33;100883.72;6233559;23;20019;-80
2023/08/08 10:24:13;;;;;;;1.65;0.52;;;;;;;26.66;35.83;100885.63;6233795;23;20019;-79
2023/08/08 10:27:07;;;;;;;1.63;0.40;;;;;;;26.70;35.94;100887.16;6253670;23;20039;-80
2023/08/08 10:30:12;;;;;;;2.53;0.40;;;;;;;26.97;35.54;100889.94;6232387;23;20039;-81
2023/08/08 10:33:06;;;;;;;3.75;0.63;;;;;;;27.34;33.61;100888.16;6233203;23;20043;-83
2023/08/08 10:35:59;;;;;;;;;;;;;;;26.91;35.59;100891.66;6233953;23;20019;-80
2023/08/08 10:38:51;;;;;;;4.45;0.40;;;;;;;30.24;29.60;100891.88;6253987;23;19908;-80
2023/08/08 10:41:44;;;;;;;;;;;;;;;27.76;33.84;100890.19;6255575;23;20023;-81
2023/08/08 10:44:40;;;;;;;;;;;;;;;27.27;34.86;100880.69;6254823;23;19907;-80
2023/08/08 10:47:33;;;;;;;;;;;;;;;28.09;32.97;100879.94;6254800;23;19911;-80
2023/08/08 10:50:28;;;;;;;;;;;;;;;28.23;32.43;100881.69;6254876;23;19908;-80
2023/08/08 10:53:25;;;;;;;4.50;0.90;;;;;;;28.52;31.81;100873.47;6231433;23;20345;-81
2023/08/08 10:56:22;;;;;;;1.27;0.38;;;;;;;28.34;33.17;100871.84;6232697;23;20031;-81
2023/08/08 10:59:37;;;;;;;1.65;0.55;;;;;;;27.90;32.95;100878.72;6231615;23;20023;-81
2023/08/08 11:02:29;;;;;;;9.45;0.60;;;;;;;28.01;32.99;100864.53;6232400;23;20052;-81
2023/08/08 11:05:26;;;;;;;2.03;0.30;;;;;;;29.56;30.03;100864.94;6232464;23;20067;-80
2023/08/08 11:08:18;;;;;;;5.93;0.70;;;;;;;28.86;31.36;100865.47;6254403;23;20044;-81
2023/08/08 11:11:13;;;;;;;5.72;0.57;;;;;;;28.12;32.60;100872.75;6232622;23;20075;-81
2023/08/08 11:14:13;;;;;;;2.13;0.90;;;;;;;28.25;33.48;100863.25;6254612;23;20023;-79
2023/08/08 11:17:06;;;;;;;2.00;0.40;;;;;;;29.12;30.71;100860.84;6254464;23;20027;-80
2023/08/08 11:20:01;;;;;;;0.40;0.30;;;;;;;28.09;33.04;100849.97;6254190;23;20019;-79
2023/08/08 11:22:58;;;;;;;0.90;0.50;;;;;;;27.51;34.53;100845.19;6254870;23;20023;-79
2023/08/08 11:25:51;;;;;;;0.68;0.30;;;;;;;28.61;32.57;100849.25;6232983;23;20023;-81
2023/08/08 11:28:51;;;;;;;0.47;0.32;;;;;;;29.03;31.72;100852.28;6233568;23;20031;-83
2023/08/08 11:31:43;;;;;;;2.90;0.63;;;;;;;28.78;32.99;100841.69;6233814;23;20047;-83
2023/08/08 11:34:35;;;;;;;2.00;0.52;;;;;;;29.06;30.73;100845.78;6232666;23;20019;-82
2023/08/08 11:37:29;;;;;;;2.78;0.40;;;;;;;29.38;30.49;100842.19;6232756;23;20031;-81
2023/08/08 11:40:21;;;;;;;2.50;0.40;;;;;;;30.33;29.77;100847.88;6255105;23;20023;-83
2023/08/08 11:43:13;;;;;;;;;;;;;;;29.83;29.77;100840.13;6256061;23;20517;-82
2023/08/08 11:46:11;;;;;;;0.75;0.28;;;;;;;28.42;32.42;100828.50;6255120;23;19907;-80
2023/08/08 11:49:07;;;;;;;3.40;0.30;;;;;;;28.68;32.26;100828.72;6234391;23;20379;-79
2023/08/08 11:52:02;;;;;;;1.17;0.55;;;;;;;33.23;25.35;100838.53;6257032;23;20019;-81
2023/08/08 11:55:00;;;;;;;2.90;0.45;;;;;;;29.91;30.18;100843.56;6257148;23;20534;-80
2023/08/08 11:57:50;;;;;;;1.95;0.40;;;;;;;31.08;28.75;100834.31;6256514;23;20026;-79
2023/08/08 12:00:44;;;;;;;0.85;0.38;;;;;;;32.71;26.05;100845.94;6235601;23;20019;-84
2023/08/08 12:03:38;;;;;;;2.22;0.55;;;;;;;33.57;25.05;100831.84;6235241;23;20023;-83
2023/08/08 12:06:34;;;;;;;3.35;0.57;;;;;;;32.38;25.52;100833.56;6236065;23;20023;-82
2023/08/08 12:09:24;;;;;;;2.83;0.40;;;;;;;31.79;26.33;100826.97;6255356;23;20043;-83
2023/08/08 12:12:18;;;;;;;1.02;0.32;;;;;;;31.17;26.23;100828.78;6257042;23;20023;-82
2023/08/08 12:15:15;;;;;;;3.60;0.50;;;;;;;30.77;27.24;100831.31;6234451;23;20038;-81
2023/08/08 12:18:10;;;;;;;3.38;0.50;;;;;;;30.88;27.34;100817.69;6255359;23;20023;-82
2023/08/08 12:21:04;;;;;;;2.92;0.35;;;;;;;31.07;26.46;100810.25;6234091;23;20023;-82
2023/08/08 12:23:59;;;;;;;2.08;0.40;;;;;;;31.50;26.27;100815.13;6232714;23;20650;-82
2023/08/08 12:26:54;;;;;;;0.98;0.32;;;;;;;30.28;28.94;100813.97;6256910;23;20039;-82
2023/08/08 12:29:48;;;;;;;0.25;0.25;;;;;;;31.32;28.18;100801.75;6234651;23;20023;-81
2023/08/08 12:32:40;;;;;;;;;;;;;;;31.95;26.76;100811.91;6257257;23;20023;-82
2023/08/08 12:35:32;;;;;;;;;;;;;;;31.97;26.11;100813.00;6255903;23;19911;-84
2023/08/08 12:38:21;;;;;;;;;;;;;;;32.65;23.82;100814.78;6233266;23;19907;-82
2023/08/08 12:41:13;;;;;;;;;;;;;;;38.89;18.46;100832.16;6257329;23;19907;-83
2023/08/08 12:44:05;;;;;;;;;;;;;;;37.84;19.06;100820.72;6257982;23;19907;-84
2023/08/08 12:46:57;;;;;;;;;;;;;;;37.05;19.56;100821.06;6258455;23;19907;-82
2023/08/08 12:49:49;;;;;;;;;;;;;;;34.44;22.28;100819.75;6256697;23;19911;-81
2023/08/08 12:52:41;;;;;;;;;;;;;;;32.87;23.68;100811.06;6255900;23;19907;-82
2023/08/08 12:55:33;;;;;;;;;;;;;;;31.19;26.43;100809.44;6255467;23;19915;-82
2023/08/08 12:58:25;;;;;;;;;;;;;;;30.23;27.87;100798.47;6255736;23;19907;-81
2023/08/08 13:01:14;;;;;;;;;;;;;;;29.15;29.08;100796.34;6256556;23;20325;-80
2023/08/08 13:04:03;;;;;;;;;;;;;;;29.37;28.89;100793.75;6255631;23;19908;-79
2023/08/08 13:06:55;;;;;;;;;;;;;;;29.56;27.67;100786.47;6234712;23;19907;-80
2023/08/08 13:09:48;;;;;;;;;;;;;;;29.31;28.84;100801.91;6233857;23;19933;-80
2023/08/08 13:12:37;;;;;;;;;;;;;;;28.87;29.82;100799.88;6234049;23;19908;-79
2023/08/08 13:15:29;;;;;;;;;;;;;;;28.71;30.46;100799.84;6255474;23;19912;-81
2023/08/08 13:18:21;;;;;;;;;;;;;;;28.60;28.81;100791.69;6234354;23;19907;-81
2023/08/08 13:21:13;;;;;;;;;;;;;;;28.23;30.83;100786.59;6258621;23;19911;-82
2023/08/08 13:24:07;;;;;;;;;;;;;;;28.55;30.25;100789.41;6228512;23;20388;-81
2023/08/08 13:26:59;;;;;;;;;;;;;;;28.26;31.32;100785.72;6239480;23;20242;-82
2023/08/08 13:29:51;;;;;;;;;;;;;;;28.64;31.28;100784.03;6238136;23;19926;-81
2023/08/08 13:32:41;;;;;;;;;;;;;;;28.55;30.85;100778.22;6259114;23;19911;-82
2023/08/08 13:35:30;;;;;;;;;;;;;;;28.36;30.73;100771.50;6258716;23;19912;-82
2023/08/08 13:38:20;;;;;;;;;;;;;;;28.25;31.61;100759.75;6259612;23;19908;-81
2023/08/08 13:41:13;;;;;;;;;;;;;;;28.62;30.20;100774.47;6259921;23;19912;-82
2023/08/08 13:44:05;;;;;;;;;;;;;;;28.89;29.99;100761.81;6258707;23;20235;-82
2023/08/08 13:46:55;;;;;;;;;;;;;;;28.72;30.43;100765.84;6257605;23;20250;-81
2023/08/08 13:49:48;;;;;;;;;;;;;;;27.38;33.58;100760.41;6235404;23;19911;-81